Littlestown, Pennsylvania
Current Conditions -  °F | °C
As of 5:30 AM on Wednesday 22 Oct 2014 (Local Time) from KDMW Reporting Station
Moderate Rain Moderate Rain  
Wind Chill: 52°   Ceiling: 2600
Heat Index: 52°   Visibility: 5mi
Dew Point: 48°   Wind: 6mph
Humidity: 88%   Direction: 360°N
Pressure: 29.9"   Gusts: NA
Location:  39.74°N, 77.09°W
Report Text: KDMW 220930Z AUTO 36005KT 5SM RA SCT006 BKN026 OVC049 11/09 A2990 RMK AO2 LTG DSNT E P0006
Loading
Personal Weather Stations






























Interactive Weather Map
Tropical Storm Tracking
New forecast layout! Learn more

10-Day Weather Forecast

Advertisements
Track Severe Weather on mobile